sensor_id;sensor_type;location;lat;lon;timestamp;temperature;humidity
3334;DHT22;1679;50.392;8.008;2023-02-02T00:00:02;6.20;99.90
3334;DHT22;1679;50.392;8.008;2023-02-02T00:02:27;6.20;99.90
3334;DHT22;1679;50.392;8.008;2023-02-02T00:04:53;6.30;99.90
3334;DHT22;1679;50.392;8.008;2023-02-02T00:07:18;6.20;99.90
3334;DHT22;1679;50.392;8.008;2023-02-02T00:09:44;6.30;99.90
3334;DHT22;1679;50.392;8.008;2023-02-02T00:12:10;6.30;99.90
3334;DHT22;1679;50.392;8.008;2023-02-02T00:14:36;6.40;99.90
3334;DHT22;1679;50.392;8.008;2023-02-02T00:17:01;6.30;99.90
3334;DHT22;1679;50.392;8.008;2023-02-02T00:19:31;6.30;99.90
3334;DHT22;1679;50.392;8.008;2023-02-02T00:21:57;6.30;99.90
3334;DHT22;1679;50.392;8.008;2023-02-02T00:24:22;6.30;99.90
3334;DHT22;1679;50.392;8.008;2023-02-02T00:26:53;6.30;99.90
3334;DHT22;1679;50.392;8.008;2023-02-02T00:29:21;6.30;99.90
3334;DHT22;1679;50.392;8.008;2023-02-02T00:31:47;6.40;99.90
3334;DHT22;1679;50.392;8.008;2023-02-02T00:34:14;6.40;99.90
3334;DHT22;1679;50.392;8.008;2023-02-02T00:36:40;6.40;99.90
3334;DHT22;1679;50.392;8.008;2023-02-02T00:39:07;6.40;99.90
3334;DHT22;1679;50.392;8.008;2023-02-02T00:41:33;6.40;99.90
3334;DHT22;1679;50.392;8.008;2023-02-02T00:43:58;6.40;99.90
3334;DHT22;1679;50.392;8.008;2023-02-02T00:46:42;6.40;99.90
3334;DHT22;1679;50.392;8.008;2023-02-02T00:49:08;6.50;99.90
3334;DHT22;1679;50.392;8.008;2023-02-02T00:51:35;6.50;99.90
3334;DHT22;1679;50.392;8.008;2023-02-02T00:54:01;6.50;99.90
3334;DHT22;1679;50.392;8.008;2023-02-02T00:56:27;6.50;99.90
3334;DHT22;1679;50.392;8.008;2023-02-02T00:58:52;6.60;99.90
3334;DHT22;1679;50.392;8.008;2023-02-02T01:01:19;6.50;99.90
3334;DHT22;1679;50.392;8.008;2023-02-02T01:03:46;6.60;99.90
3334;DHT22;1679;50.392;8.008;2023-02-02T01:06:12;6.60;99.90
3334;DHT22;1679;50.392;8.008;2023-02-02T01:08:38;6.60;99.90
3334;DHT22;1679;50.392;8.008;2023-02-02T01:11:05;6.60;99.90
3334;DHT22;1679;50.392;8.008;2023-02-02T01:13:32;6.80;99.90
3334;DHT22;1679;50.392;8.008;2023-02-02T01:15:59;6.80;99.90
3334;DHT22;1679;50.392;8.008;2023-02-02T01:18:25;6.70;99.90
3334;DHT22;1679;50.392;8.008;2023-02-02T01:21:05;6.80;99.90
3334;DHT22;1679;50.392;8.008;2023-02-02T01:23:31;6.80;99.90
3334;DHT22;1679;50.392;8.008;2023-02-02T01:26:00;6.80;99.90
3334;DHT22;1679;50.392;8.008;2023-02-02T01:28:27;6.80;99.90
3334;DHT22;1679;50.392;8.008;2023-02-02T01:30:53;6.80;99.90
3334;DHT22;1679;50.392;8.008;2023-02-02T01:33:19;6.80;99.90
3334;DHT22;1679;50.392;8.008;2023-02-02T01:35:46;6.90;99.90
3334;DHT22;1679;50.392;8.008;2023-02-02T01:38:12;6.80;99.90
3334;DHT22;1679;50.392;8.008;2023-02-02T01:40:44;6.80;99.90
3334;DHT22;1679;50.392;8.008;2023-02-02T01:43:27;6.80;99.90
3334;DHT22;1679;50.392;8.008;2023-02-02T01:45:55;6.90;99.90
3334;DHT22;1679;50.392;8.008;2023-02-02T01:48:29;6.90;99.90
3334;DHT22;1679;50.392;8.008;2023-02-02T01:50:59;6.80;99.90
3334;DHT22;1679;50.392;8.008;2023-02-02T01:53:26;6.90;99.90
3334;DHT22;1679;50.392;8.008;2023-02-02T01:55:53;6.90;99.90
3334;DHT22;1679;50.392;8.008;2023-02-02T01:58:26;6.90;99.90
3334;DHT22;1679;50.392;8.008;2023-02-02T02:00:52;6.90;99.90
3334;DHT22;1679;50.392;8.008;2023-02-02T02:03:21;6.90;99.90
3334;DHT22;1679;50.392;8.008;2023-02-02T02:06:00;6.80;99.90
3334;DHT22;1679;50.392;8.008;2023-02-02T02:08:39;6.70;99.90
3334;DHT22;1679;50.392;8.008;2023-02-02T02:11:05;6.60;99.90
3334;DHT22;1679;50.392;8.008;2023-02-02T02:13:34;6.50;99.90
3334;DHT22;1679;50.392;8.008;2023-02-02T02:22:26;6.40;99.90
3334;DHT22;1679;50.392;8.008;2023-02-02T02:37:14;6.10;99.90
3334;DHT22;1679;50.392;8.008;2023-02-02T02:40:01;6.10;99.90
3334;DHT22;1679;50.392;8.008;2023-02-02T02:42:31;6.10;99.90
3334;DHT22;1679;50.392;8.008;2023-02-02T02:45:00;6.10;99.90
3334;DHT22;1679;50.392;8.008;2023-02-02T02:47:28;6.10;99.90
3334;DHT22;1679;50.392;8.008;2023-02-02T02:49:54;6.10;99.90
3334;DHT22;1679;50.392;8.008;2023-02-02T02:52:20;6.10;99.90
3334;DHT22;1679;50.392;8.008;2023-02-02T02:54:46;6.10;99.90
3334;DHT22;1679;50.392;8.008;2023-02-02T03:00:03;6.10;99.90
3334;DHT22;1679;50.392;8.008;2023-02-02T03:08:23;6.10;99.90
3334;DHT22;1679;50.392;8.008;2023-02-02T03:10:52;6.10;99.90
3334;DHT22;1679;50.392;8.008;2023-02-02T03:13:19;6.10;99.90
3334;DHT22;1679;50.392;8.008;2023-02-02T03:15:45;6.10;99.90
3334;DHT22;1679;50.392;8.008;2023-02-02T03:18:14;6.10;99.90
3334;DHT22;1679;50.392;8.008;2023-02-02T03:20:44;6.10;99.90
3334;DHT22;1679;50.392;8.008;2023-02-02T03:23:10;6.10;99.90
3334;DHT22;1679;50.392;8.008;2023-02-02T03:25:36;6.10;99.90
3334;DHT22;1679;50.392;8.008;2023-02-02T03:28:02;6.10;99.90
3334;DHT22;1679;50.392;8.008;2023-02-02T03:30:28;6.10;99.90
3334;DHT22;1679;50.392;8.008;2023-02-02T03:32:54;6.10;99.90
3334;DHT22;1679;50.392;8.008;2023-02-02T03:35:19;6.10;99.90
3334;DHT22;1679;50.392;8.008;2023-02-02T03:37:45;6.10;99.90
3334;DHT22;1679;50.392;8.008;2023-02-02T03:40:12;6.10;99.90
3334;DHT22;1679;50.392;8.008;2023-02-02T03:42:37;6.10;99.90
3334;DHT22;1679;50.392;8.008;2023-02-02T03:45:04;6.10;99.90
3334;DHT22;1679;50.392;8.008;2023-02-02T03:47:30;6.10;99.90
3334;DHT22;1679;50.392;8.008;2023-02-02T03:49:56;6.20;99.90
3334;DHT22;1679;50.392;8.008;2023-02-02T03:52:22;6.10;99.90
3334;DHT22;1679;50.392;8.008;2023-02-02T03:54:47;6.20;99.90
3334;DHT22;1679;50.392;8.008;2023-02-02T03:57:13;6.20;99.90
3334;DHT22;1679;50.392;8.008;2023-02-02T03:59:38;6.20;99.90
3334;DHT22;1679;50.392;8.008;2023-02-02T04:02:04;6.20;99.90
3334;DHT22;1679;50.392;8.008;2023-02-02T04:04:29;6.20;99.90
3334;DHT22;1679;50.392;8.008;2023-02-02T04:06:55;6.20;99.90
3334;DHT22;1679;50.392;8.008;2023-02-02T04:09:23;6.20;99.90
3334;DHT22;1679;50.392;8.008;2023-02-02T04:11:48;6.20;99.90
3334;DHT22;1679;50.392;8.008;2023-02-02T04:14:14;6.20;99.90
3334;DHT22;1679;50.392;8.008;2023-02-02T04:16:39;6.20;99.90
3334;DHT22;1679;50.392;8.008;2023-02-02T04:19:05;6.20;99.90
3334;DHT22;1679;50.392;8.008;2023-02-02T04:21:31;6.20;99.90
3334;DHT22;1679;50.392;8.008;2023-02-02T04:23:56;6.10;99.90
3334;DHT22;1679;50.392;8.008;2023-02-02T04:26:22;6.20;99.90
3334;DHT22;1679;50.392;8.008;2023-02-02T04:28:52;6.10;99.90
3334;DHT22;1679;50.392;8.008;2023-02-02T04:31:18;6.20;99.90
3334;DHT22;1679;50.392;8.008;2023-02-02T04:33:44;6.20;99.90
3334;DHT22;1679;50.392;8.008;2023-02-02T04:36:10;6.20;99.90
3334;DHT22;1679;50.392;8.008;2023-02-02T04:38:36;6.20;99.90
3334;DHT22;1679;50.392;8.008;2023-02-02T04:41:06;6.20;99.90
3334;DHT22;1679;50.392;8.008;2023-02-02T04:43:34;6.20;99.90
3334;DHT22;1679;50.392;8.008;2023-02-02T04:45:59;6.20;99.90
3334;DHT22;1679;50.392;8.008;2023-02-02T04:48:25;6.20;99.90
3334;DHT22;1679;50.392;8.008;2023-02-02T04:50:56;6.10;99.90
3334;DHT22;1679;50.392;8.008;2023-02-02T04:53:22;6.10;99.90
3334;DHT22;1679;50.392;8.008;2023-02-02T04:55:47;6.10;99.90
3334;DHT22;1679;50.392;8.008;2023-02-02T04:58:13;6.10;99.90
3334;DHT22;1679;50.392;8.008;2023-02-02T05:00:38;6.10;99.90
3334;DHT22;1679;50.392;8.008;2023-02-02T05:03:03;6.10;99.90
3334;DHT22;1679;50.392;8.008;2023-02-02T05:05:29;6.10;99.90
3334;DHT22;1679;50.392;8.008;2023-02-02T05:07:55;6.10;99.90
3334;DHT22;1679;50.392;8.008;2023-02-02T05:10:20;6.10;99.90
3334;DHT22;1679;50.392;8.008;2023-02-02T05:12:46;6.10;99.90
3334;DHT22;1679;50.392;8.008;2023-02-02T05:15:11;6.00;99.90
3334;DHT22;1679;50.392;8.008;2023-02-02T05:17:38;6.00;99.90
3334;DHT22;1679;50.392;8.008;2023-02-02T05:20:03;6.00;99.90
3334;DHT22;1679;50.392;8.008;2023-02-02T05:22:30;6.00;99.90
3334;DHT22;1679;50.392;8.008;2023-02-02T05:24:57;6.00;99.90
3334;DHT22;1679;50.392;8.008;2023-02-02T05:27:24;6.10;99.90
3334;DHT22;1679;50.392;8.008;2023-02-02T05:29:50;6.10;99.90
3334;DHT22;1679;50.392;8.008;2023-02-02T05:32:16;6.10;99.90
3334;DHT22;1679;50.392;8.008;2023-02-02T05:34:41;6.10;99.90
3334;DHT22;1679;50.392;8.008;2023-02-02T05:37:07;6.00;99.90
3334;DHT22;1679;50.392;8.008;2023-02-02T05:39:34;6.00;99.90
3334;DHT22;1679;50.392;8.008;2023-02-02T05:41:59;6.10;99.90
3334;DHT22;1679;50.392;8.008;2023-02-02T05:44:25;6.10;99.90
3334;DHT22;1679;50.392;8.008;2023-02-02T05:46:52;6.10;99.90
3334;DHT22;1679;50.392;8.008;2023-02-02T05:49:17;6.10;99.90
3334;DHT22;1679;50.392;8.008;2023-02-02T05:51:46;6.20;99.90
3334;DHT22;1679;50.392;8.008;2023-02-02T05:54:13;6.10;99.90
3334;DHT22;1679;50.392;8.008;2023-02-02T05:56:44;6.10;99.90
3334;DHT22;1679;50.392;8.008;2023-02-02T05:59:09;6.10;99.90
3334;DHT22;1679;50.392;8.008;2023-02-02T06:01:35;6.10;99.90
3334;DHT22;1679;50.392;8.008;2023-02-02T06:04:02;6.10;99.90
3334;DHT22;1679;50.392;8.008;2023-02-02T06:06:27;6.10;99.90
3334;DHT22;1679;50.392;8.008;2023-02-02T06:08:54;6.10;99.90
3334;DHT22;1679;50.392;8.008;2023-02-02T06:11:19;6.10;99.90
3334;DHT22;1679;50.392;8.008;2023-02-02T06:13:46;6.10;99.90
3334;DHT22;1679;50.392;8.008;2023-02-02T06:16:12;6.10;99.90
3334;DHT22;1679;50.392;8.008;2023-02-02T06:18:38;6.10;99.90
3334;DHT22;1679;50.392;8.008;2023-02-02T06:21:05;6.10;99.90
3334;DHT22;1679;50.392;8.008;2023-02-02T06:23:31;6.10;99.90
3334;DHT22;1679;50.392;8.008;2023-02-02T06:25:58;6.10;99.90
3334;DHT22;1679;50.392;8.008;2023-02-02T06:28:23;6.10;99.90
3334;DHT22;1679;50.392;8.008;2023-02-02T06:30:49;6.10;99.90
3334;DHT22;1679;50.392;8.008;2023-02-02T06:33:16;6.10;99.90
3334;DHT22;1679;50.392;8.008;2023-02-02T06:35:41;6.10;99.90
3334;DHT22;1679;50.392;8.008;2023-02-02T06:38:07;6.10;99.90
3334;DHT22;1679;50.392;8.008;2023-02-02T06:40:33;6.00;99.90
3334;DHT22;1679;50.392;8.008;2023-02-02T06:43:01;6.00;99.90
3334;DHT22;1679;50.392;8.008;2023-02-02T06:45:28;6.00;99.90
3334;DHT22;1679;50.392;8.008;2023-02-02T06:48:05;6.10;99.90
3334;DHT22;1679;50.392;8.008;2023-02-02T06:50:42;6.10;99.90
3334;DHT22;1679;50.392;8.008;2023-02-02T06:53:10;6.20;99.90
3334;DHT22;1679;50.392;8.008;2023-02-02T06:55:35;6.20;99.90
3334;DHT22;1679;50.392;8.008;2023-02-02T06:58:01;6.20;99.90
3334;DHT22;1679;50.392;8.008;2023-02-02T07:00:28;6.20;99.90
3334;DHT22;1679;50.392;8.008;2023-02-02T07:02:54;6.20;99.90
3334;DHT22;1679;50.392;8.008;2023-02-02T07:05:26;6.20;99.90
3334;DHT22;1679;50.392;8.008;2023-02-02T07:07:52;6.20;99.90
3334;DHT22;1679;50.392;8.008;2023-02-02T07:10:17;6.20;99.90
3334;DHT22;1679;50.392;8.008;2023-02-02T07:12:44;6.20;99.90
3334;DHT22;1679;50.392;8.008;2023-02-02T07:15:19;6.20;99.90
3334;DHT22;1679;50.392;8.008;2023-02-02T07:17:44;6.20;99.90
3334;DHT22;1679;50.392;8.008;2023-02-02T07:20:10;6.20;99.90
3334;DHT22;1679;50.392;8.008;2023-02-02T07:25:08;6.20;99.90
3334;DHT22;1679;50.392;8.008;2023-02-02T07:27:35;6.20;99.90
3334;DHT22;1679;50.392;8.008;2023-02-02T07:30:09;6.20;99.90
3334;DHT22;1679;50.392;8.008;2023-02-02T07:32:35;6.20;99.90
3334;DHT22;1679;50.392;8.008;2023-02-02T07:35:05;6.30;99.90
3334;DHT22;1679;50.392;8.008;2023-02-02T07:37:31;6.30;99.90
3334;DHT22;1679;50.392;8.008;2023-02-02T07:39:57;6.30;99.90
3334;DHT22;1679;50.392;8.008;2023-02-02T07:42:22;6.30;99.90
3334;DHT22;1679;50.392;8.008;2023-02-02T07:44:48;6.30;99.90
3334;DHT22;1679;50.392;8.008;2023-02-02T07:47:13;6.30;99.90
3334;DHT22;1679;50.392;8.008;2023-02-02T07:49:41;6.40;99.90
3334;DHT22;1679;50.392;8.008;2023-02-02T07:52:07;6.40;99.90
3334;DHT22;1679;50.392;8.008;2023-02-02T07:54:32;6.40;99.90
3334;DHT22;1679;50.392;8.008;2023-02-02T07:56:59;6.40;99.90
3334;DHT22;1679;50.392;8.008;2023-02-02T07:59:26;6.40;99.90
3334;DHT22;1679;50.392;8.008;2023-02-02T08:01:53;6.40;99.90
3334;DHT22;1679;50.392;8.008;2023-02-02T08:04:18;6.40;99.90
3334;DHT22;1679;50.392;8.008;2023-02-02T08:06:44;6.40;99.90
3334;DHT22;1679;50.392;8.008;2023-02-02T08:09:09;6.40;99.90
3334;DHT22;1679;50.392;8.008;2023-02-02T08:11:36;6.40;99.90
3334;DHT22;1679;50.392;8.008;2023-02-02T08:14:03;6.40;99.90
3334;DHT22;1679;50.392;8.008;2023-02-02T08:16:31;6.40;99.90
3334;DHT22;1679;50.392;8.008;2023-02-02T08:18:57;6.50;99.90
3334;DHT22;1679;50.392;8.008;2023-02-02T08:21:23;6.50;99.90
3334;DHT22;1679;50.392;8.008;2023-02-02T08:23:51;6.40;99.90
3334;DHT22;1679;50.392;8.008;2023-02-02T08:26:25;6.40;99.90
3334;DHT22;1679;50.392;8.008;2023-02-02T08:28:57;6.50;99.90
3334;DHT22;1679;50.392;8.008;2023-02-02T08:31:28;6.50;99.90
3334;DHT22;1679;50.392;8.008;2023-02-02T08:33:53;6.60;99.90
3334;DHT22;1679;50.392;8.008;2023-02-02T08:36:22;6.60;99.90
3334;DHT22;1679;50.392;8.008;2023-02-02T08:38:49;6.50;99.90
3334;DHT22;1679;50.392;8.008;2023-02-02T08:41:17;6.50;99.90
3334;DHT22;1679;50.392;8.008;2023-02-02T08:43:43;6.50;99.90
3334;DHT22;1679;50.392;8.008;2023-02-02T08:46:12;6.50;99.90
3334;DHT22;1679;50.392;8.008;2023-02-02T08:48:39;6.50;99.90
3334;DHT22;1679;50.392;8.008;2023-02-02T08:51:05;6.50;99.90
3334;DHT22;1679;50.392;8.008;2023-02-02T08:53:31;6.60;99.90
3334;DHT22;1679;50.392;8.008;2023-02-02T08:56:02;6.60;99.90
3334;DHT22;1679;50.392;8.008;2023-02-02T08:58:30;6.70;99.90
3334;DHT22;1679;50.392;8.008;2023-02-02T09:01:13;6.70;99.90
3334;DHT22;1679;50.392;8.008;2023-02-02T09:03:40;6.60;99.90
3334;DHT22;1679;50.392;8.008;2023-02-02T09:06:49;6.60;99.90
3334;DHT22;1679;50.392;8.008;2023-02-02T09:08:56;6.70;99.90
3334;DHT22;1679;50.392;8.008;2023-02-02T09:11:21;6.70;99.90
3334;DHT22;1679;50.392;8.008;2023-02-02T09:13:51;6.70;99.90
3334;DHT22;1679;50.392;8.008;2023-02-02T09:16:18;6.70;99.90
3334;DHT22;1679;50.392;8.008;2023-02-02T09:18:44;6.70;99.90
3334;DHT22;1679;50.392;8.008;2023-02-02T09:21:12;6.70;99.90
3334;DHT22;1679;50.392;8.008;2023-02-02T09:23:40;6.80;99.90
3334;DHT22;1679;50.392;8.008;2023-02-02T09:28:51;6.80;99.90
3334;DHT22;1679;50.392;8.008;2023-02-02T09:31:17;6.80;99.90
3334;DHT22;1679;50.392;8.008;2023-02-02T09:33:43;6.80;99.90
3334;DHT22;1679;50.392;8.008;2023-02-02T09:36:11;6.80;99.90
3334;DHT22;1679;50.392;8.008;2023-02-02T09:38:38;6.90;99.90
3334;DHT22;1679;50.392;8.008;2023-02-02T09:52:26;7.10;99.90
3334;DHT22;1679;50.392;8.008;2023-02-02T09:55:04;7.20;99.90
3334;DHT22;1679;50.392;8.008;2023-02-02T09:57:38;7.30;99.90
3334;DHT22;1679;50.392;8.008;2023-02-02T10:00:24;7.30;99.90
3334;DHT22;1679;50.392;8.008;2023-02-02T10:02:55;7.30;99.90
3334;DHT22;1679;50.392;8.008;2023-02-02T10:05:28;7.30;99.90
3334;DHT22;1679;50.392;8.008;2023-02-02T10:08:00;7.30;99.90
3334;DHT22;1679;50.392;8.008;2023-02-02T10:10:31;7.30;99.90
3334;DHT22;1679;50.392;8.008;2023-02-02T10:13:19;7.20;99.90
3334;DHT22;1679;50.392;8.008;2023-02-02T10:16:06;7.30;99.90
3334;DHT22;1679;50.392;8.008;2023-02-02T10:19:00;7.40;99.90
3334;DHT22;1679;50.392;8.008;2023-02-02T10:21:42;7.40;99.90
3334;DHT22;1679;50.392;8.008;2023-02-02T10:24:21;7.30;99.90
3334;DHT22;1679;50.392;8.008;2023-02-02T10:26:50;7.20;99.90
3334;DHT22;1679;50.392;8.008;2023-02-02T10:32:24;7.20;99.90
3334;DHT22;1679;50.392;8.008;2023-02-02T10:34:57;7.20;99.90
3334;DHT22;1679;50.392;8.008;2023-02-02T10:37:51;7.20;99.90
3334;DHT22;1679;50.392;8.008;2023-02-02T10:49:08;7.00;99.90
3334;DHT22;1679;50.392;8.008;2023-02-02T10:51:36;7.10;99.90
3334;DHT22;1679;50.392;8.008;2023-02-02T10:57:09;7.00;99.90
3334;DHT22;1679;50.392;8.008;2023-02-02T10:59:42;7.00;99.90
3334;DHT22;1679;50.392;8.008;2023-02-02T11:02:11;7.00;99.90
3334;DHT22;1679;50.392;8.008;2023-02-02T11:04:37;7.00;99.90
3334;DHT22;1679;50.392;8.008;2023-02-02T11:07:22;7.00;99.90
3334;DHT22;1679;50.392;8.008;2023-02-02T11:09:47;7.00;99.90
3334;DHT22;1679;50.392;8.008;2023-02-02T11:12:24;7.10;99.90
3334;DHT22;1679;50.392;8.008;2023-02-02T11:14:59;7.10;99.90
3334;DHT22;1679;50.392;8.008;2023-02-02T11:17:26;7.10;99.90
3334;DHT22;1679;50.392;8.008;2023-02-02T11:19:53;7.20;99.90
3334;DHT22;1679;50.392;8.008;2023-02-02T11:22:32;7.20;99.90
3334;DHT22;1679;50.392;8.008;2023-02-02T11:25:05;7.30;99.90
3334;DHT22;1679;50.392;8.008;2023-02-02T11:27:37;7.30;99.90
3334;DHT22;1679;50.392;8.008;2023-02-02T11:30:31;7.30;99.90
3334;DHT22;1679;50.392;8.008;2023-02-02T11:32:57;7.30;99.90
3334;DHT22;1679;50.392;8.008;2023-02-02T11:35:27;7.30;99.90
3334;DHT22;1679;50.392;8.008;2023-02-02T11:38:06;7.30;99.90
3334;DHT22;1679;50.392;8.008;2023-02-02T11:40:45;7.30;99.90
3334;DHT22;1679;50.392;8.008;2023-02-02T11:43:22;7.30;99.90
3334;DHT22;1679;50.392;8.008;2023-02-02T11:46:20;7.30;99.90
3334;DHT22;1679;50.392;8.008;2023-02-02T11:48:58;7.30;99.90
3334;DHT22;1679;50.392;8.008;2023-02-02T11:51:27;7.30;99.90
3334;DHT22;1679;50.392;8.008;2023-02-02T11:54:03;7.20;99.90
3334;DHT22;1679;50.392;8.008;2023-02-02T11:56:34;7.20;99.90
3334;DHT22;1679;50.392;8.008;2023-02-02T11:59:03;7.10;99.90
3334;DHT22;1679;50.392;8.008;2023-02-02T12:01:32;7.10;99.90
3334;DHT22;1679;50.392;8.008;2023-02-02T12:04:41;7.10;99.90
3334;DHT22;1679;50.392;8.008;2023-02-02T12:06:49;7.20;99.90
3334;DHT22;1679;50.392;8.008;2023-02-02T12:09:23;7.20;99.90
3334;DHT22;1679;50.392;8.008;2023-02-02T12:11:58;7.20;99.90
3334;DHT22;1679;50.392;8.008;2023-02-02T12:19:59;7.30;99.90
3334;DHT22;1679;50.392;8.008;2023-02-02T12:23:05;7.40;99.90
3334;DHT22;1679;50.392;8.008;2023-02-02T12:31:08;7.40;99.90
3334;DHT22;1679;50.392;8.008;2023-02-02T12:33:53;7.40;99.90
3334;DHT22;1679;50.392;8.008;2023-02-02T12:36:22;7.40;99.90
3334;DHT22;1679;50.392;8.008;2023-02-02T12:50:34;7.50;99.90
3334;DHT22;1679;50.392;8.008;2023-02-02T12:56:21;7.60;99.90
3334;DHT22;1679;50.392;8.008;2023-02-02T12:59:15;7.60;99.90
3334;DHT22;1679;50.392;8.008;2023-02-02T13:10:17;7.80;99.90
3334;DHT22;1679;50.392;8.008;2023-02-02T13:13:04;7.80;99.90
3334;DHT22;1679;50.392;8.008;2023-02-02T13:15:39;7.90;99.90
3334;DHT22;1679;50.392;8.008;2023-02-02T13:18:14;7.90;99.90
3334;DHT22;1679;50.392;8.008;2023-02-02T13:23:22;7.90;99.90
3334;DHT22;1679;50.392;8.008;2023-02-02T13:25:54;7.90;99.90
3334;DHT22;1679;50.392;8.008;2023-02-02T13:28:34;8.00;99.90
3334;DHT22;1679;50.392;8.008;2023-02-02T13:31:04;8.00;99.90
3334;DHT22;1679;50.392;8.008;2023-02-02T13:33:35;8.00;99.90
3334;DHT22;1679;50.392;8.008;2023-02-02T13:36:05;8.10;99.90
3334;DHT22;1679;50.392;8.008;2023-02-02T13:38:32;8.10;99.90
3334;DHT22;1679;50.392;8.008;2023-02-02T13:41:01;8.10;99.90
3334;DHT22;1679;50.392;8.008;2023-02-02T13:46:20;8.10;99.90
3334;DHT22;1679;50.392;8.008;2023-02-02T13:49:21;8.00;99.90
3334;DHT22;1679;50.392;8.008;2023-02-02T13:52:13;8.00;99.90
3334;DHT22;1679;50.392;8.008;2023-02-02T13:57:47;7.90;99.90
3334;DHT22;1679;50.392;8.008;2023-02-02T14:02:59;7.90;99.90
3334;DHT22;1679;50.392;8.008;2023-02-02T14:05:37;8.00;99.90
3334;DHT22;1679;50.392;8.008;2023-02-02T14:08:05;8.00;99.90
3334;DHT22;1679;50.392;8.008;2023-02-02T14:10:44;8.00;99.90
3334;DHT22;1679;50.392;8.008;2023-02-02T14:18:58;8.00;99.90
3334;DHT22;1679;50.392;8.008;2023-02-02T14:24:42;8.10;99.90
3334;DHT22;1679;50.392;8.008;2023-02-02T14:26:47;8.00;99.90
3334;DHT22;1679;50.392;8.008;2023-02-02T14:34:48;8.00;99.90
3334;DHT22;1679;50.392;8.008;2023-02-02T14:42:58;7.90;99.90
3334;DHT22;1679;50.392;8.008;2023-02-02T14:45:48;7.90;99.90
3334;DHT22;1679;50.392;8.008;2023-02-02T14:48:18;7.90;99.90
3334;DHT22;1679;50.392;8.008;2023-02-02T14:50:51;8.00;99.90
3334;DHT22;1679;50.392;8.008;2023-02-02T14:53:27;7.90;99.90
3334;DHT22;1679;50.392;8.008;2023-02-02T15:01:45;7.90;99.90
3334;DHT22;1679;50.392;8.008;2023-02-02T15:04:16;7.90;99.90
3334;DHT22;1679;50.392;8.008;2023-02-02T15:06:42;7.80;99.90
3334;DHT22;1679;50.392;8.008;2023-02-02T15:14:32;7.80;99.90
3334;DHT22;1679;50.392;8.008;2023-02-02T15:19:45;7.90;99.90
3334;DHT22;1679;50.392;8.008;2023-02-02T15:25:32;7.90;99.90
3334;DHT22;1679;50.392;8.008;2023-02-02T15:28:19;7.80;99.90
3334;DHT22;1679;50.392;8.008;2023-02-02T15:30:50;7.90;99.90
3334;DHT22;1679;50.392;8.008;2023-02-02T15:33:25;7.90;99.90
3334;DHT22;1679;50.392;8.008;2023-02-02T15:35:53;7.90;99.90
3334;DHT22;1679;50.392;8.008;2023-02-02T15:38:23;7.90;99.90
3334;DHT22;1679;50.392;8.008;2023-02-02T15:40:57;7.80;99.90
3334;DHT22;1679;50.392;8.008;2023-02-02T15:43:24;7.90;99.90
3334;DHT22;1679;50.392;8.008;2023-02-02T15:45:53;7.90;99.90
3334;DHT22;1679;50.392;8.008;2023-02-02T15:48:32;7.90;99.90
3334;DHT22;1679;50.392;8.008;2023-02-02T15:51:15;7.90;99.90
3334;DHT22;1679;50.392;8.008;2023-02-02T15:58:52;8.00;99.90
3334;DHT22;1679;50.392;8.008;2023-02-02T16:01:21;7.90;99.90
3334;DHT22;1679;50.392;8.008;2023-02-02T16:06:35;7.90;99.90
3334;DHT22;1679;50.392;8.008;2023-02-02T16:09:02;7.90;99.90
3334;DHT22;1679;50.392;8.008;2023-02-02T16:11:29;7.80;99.90
3334;DHT22;1679;50.392;8.008;2023-02-02T16:14:06;7.90;99.90
3334;DHT22;1679;50.392;8.008;2023-02-02T16:16:39;7.80;99.90
3334;DHT22;1679;50.392;8.008;2023-02-02T16:19:12;7.90;99.90
3334;DHT22;1679;50.392;8.008;2023-02-02T16:21:46;7.80;99.90
3334;DHT22;1679;50.392;8.008;2023-02-02T16:24:32;7.80;99.90
3334;DHT22;1679;50.392;8.008;2023-02-02T16:27:00;7.90;99.90
3334;DHT22;1679;50.392;8.008;2023-02-02T16:29:27;7.90;99.90
3334;DHT22;1679;50.392;8.008;2023-02-02T16:31:53;7.90;99.90
3334;DHT22;1679;50.392;8.008;2023-02-02T16:37:19;7.90;99.90
3334;DHT22;1679;50.392;8.008;2023-02-02T16:39:47;7.90;99.90
3334;DHT22;1679;50.392;8.008;2023-02-02T16:42:29;7.90;99.90
3334;DHT22;1679;50.392;8.008;2023-02-02T16:44:56;7.90;99.90
3334;DHT22;1679;50.392;8.008;2023-02-02T16:49:52;7.90;99.90
3334;DHT22;1679;50.392;8.008;2023-02-02T16:52:20;7.80;99.90
3334;DHT22;1679;50.392;8.008;2023-02-02T16:55:08;7.80;99.90
3334;DHT22;1679;50.392;8.008;2023-02-02T16:57:34;7.80;99.90
3334;DHT22;1679;50.392;8.008;2023-02-02T17:00:03;7.80;99.90
3334;DHT22;1679;50.392;8.008;2023-02-02T17:02:34;7.90;99.90
3334;DHT22;1679;50.392;8.008;2023-02-02T17:05:05;7.90;99.90
3334;DHT22;1679;50.392;8.008;2023-02-02T17:07:34;7.90;99.90
3334;DHT22;1679;50.392;8.008;2023-02-02T17:12:43;7.80;99.90
3334;DHT22;1679;50.392;8.008;2023-02-02T17:17:42;7.80;99.90
3334;DHT22;1679;50.392;8.008;2023-02-02T17:20:08;7.80;99.90
3334;DHT22;1679;50.392;8.008;2023-02-02T17:22:40;7.90;99.90
3334;DHT22;1679;50.392;8.008;2023-02-02T17:25:17;7.80;99.90
3334;DHT22;1679;50.392;8.008;2023-02-02T17:27:44;7.90;99.90
3334;DHT22;1679;50.392;8.008;2023-02-02T17:30:16;7.80;99.90
3334;DHT22;1679;50.392;8.008;2023-02-02T17:32:42;7.80;99.90
3334;DHT22;1679;50.392;8.008;2023-02-02T17:35:19;7.80;99.90
3334;DHT22;1679;50.392;8.008;2023-02-02T17:37:46;7.80;99.90
3334;DHT22;1679;50.392;8.008;2023-02-02T17:40:17;7.80;99.90
3334;DHT22;1679;50.392;8.008;2023-02-02T17:42:44;7.80;99.90
3334;DHT22;1679;50.392;8.008;2023-02-02T17:45:27;7.80;99.90
3334;DHT22;1679;50.392;8.008;2023-02-02T17:47:53;7.80;99.90
3334;DHT22;1679;50.392;8.008;2023-02-02T17:50:20;7.80;99.90
3334;DHT22;1679;50.392;8.008;2023-02-02T17:52:49;7.80;99.90
3334;DHT22;1679;50.392;8.008;2023-02-02T17:55:21;7.80;99.90
3334;DHT22;1679;50.392;8.008;2023-02-02T17:57:48;7.80;99.90
3334;DHT22;1679;50.392;8.008;2023-02-02T18:00:15;7.80;99.90
3334;DHT22;1679;50.392;8.008;2023-02-02T18:02:41;7.80;99.90
3334;DHT22;1679;50.392;8.008;2023-02-02T18:05:07;7.90;99.90
3334;DHT22;1679;50.392;8.008;2023-02-02T18:07:33;7.90;99.90
3334;DHT22;1679;50.392;8.008;2023-02-02T18:09:59;7.80;99.90
3334;DHT22;1679;50.392;8.008;2023-02-02T18:12:24;7.80;99.90
3334;DHT22;1679;50.392;8.008;2023-02-02T18:14:51;7.80;99.90
3334;DHT22;1679;50.392;8.008;2023-02-02T18:17:18;7.80;99.90
3334;DHT22;1679;50.392;8.008;2023-02-02T18:19:43;7.80;99.90
3334;DHT22;1679;50.392;8.008;2023-02-02T18:22:11;7.80;99.90
3334;DHT22;1679;50.392;8.008;2023-02-02T18:24:38;7.80;99.90
3334;DHT22;1679;50.392;8.008;2023-02-02T18:27:04;7.80;99.90
3334;DHT22;1679;50.392;8.008;2023-02-02T18:29:29;7.80;99.90
3334;DHT22;1679;50.392;8.008;2023-02-02T18:31:57;7.80;99.90
3334;DHT22;1679;50.392;8.008;2023-02-02T18:34:23;7.80;99.90
3334;DHT22;1679;50.392;8.008;2023-02-02T18:36:49;7.80;99.90
3334;DHT22;1679;50.392;8.008;2023-02-02T18:39:14;7.80;99.90
3334;DHT22;1679;50.392;8.008;2023-02-02T18:41:40;7.80;99.90
3334;DHT22;1679;50.392;8.008;2023-02-02T18:44:05;7.80;99.90
3334;DHT22;1679;50.392;8.008;2023-02-02T18:46:31;7.90;99.90
3334;DHT22;1679;50.392;8.008;2023-02-02T18:48:59;7.90;99.90
3334;DHT22;1679;50.392;8.008;2023-02-02T18:51:24;7.90;99.90
3334;DHT22;1679;50.392;8.008;2023-02-02T18:53:50;7.90;99.90
3334;DHT22;1679;50.392;8.008;2023-02-02T18:56:15;7.80;99.90
3334;DHT22;1679;50.392;8.008;2023-02-02T18:58:42;7.80;99.90
3334;DHT22;1679;50.392;8.008;2023-02-02T19:01:12;7.80;99.90
3334;DHT22;1679;50.392;8.008;2023-02-02T19:03:38;7.80;99.90
3334;DHT22;1679;50.392;8.008;2023-02-02T19:06:06;7.80;99.90
3334;DHT22;1679;50.392;8.008;2023-02-02T19:08:52;7.80;99.90
3334;DHT22;1679;50.392;8.008;2023-02-02T19:11:22;7.80;99.90